createdAt,value
2023-02-04T00:00:31.037Z,21.95
2023-02-04T00:02:59.076Z,21.95
2023-02-04T00:05:26.913Z,21.95
2023-02-04T00:07:54.713Z,21.95
2023-02-04T00:10:22.339Z,21.94
2023-02-04T00:12:51.398Z,21.93
2023-02-04T00:15:19.115Z,21.93
2023-02-04T00:17:46.779Z,21.93
2023-02-04T00:20:14.481Z,21.93
2023-02-04T00:22:42.216Z,21.93
2023-02-04T00:25:09.961Z,21.92
2023-02-04T00:27:37.740Z,21.92
2023-02-04T00:30:07.348Z,21.91
2023-02-04T00:32:35.145Z,21.90
2023-02-04T00:35:04.708Z,21.90
2023-02-04T00:37:32.405Z,21.90
2023-02-04T00:40:00.504Z,21.89
2023-02-04T00:42:28.276Z,21.88
2023-02-04T00:44:58.626Z,21.88
2023-02-04T00:47:27.753Z,21.88
2023-02-04T00:49:55.458Z,21.87
2023-02-04T00:52:23.144Z,21.86
2023-02-04T00:54:50.853Z,21.86
2023-02-04T00:57:18.552Z,21.87
2023-02-04T00:59:46.203Z,21.87
2023-02-04T01:02:13.860Z,21.87
2023-02-04T01:04:42.925Z,21.87
2023-02-04T01:07:10.802Z,21.86
2023-02-04T01:09:38.488Z,21.85
2023-02-04T01:12:06.332Z,21.85
2023-02-04T01:14:34.172Z,21.84
2023-02-04T01:17:01.829Z,21.85
2023-02-04T01:19:29.523Z,21.84
2023-02-04T01:21:58.594Z,21.84
2023-02-04T01:24:26.257Z,21.83
2023-02-04T01:26:53.932Z,21.82
2023-02-04T01:29:21.576Z,21.82
2023-02-04T01:31:49.246Z,21.81
2023-02-04T01:34:17.026Z,21.82
2023-02-04T01:36:44.850Z,21.82
2023-02-04T01:39:13.920Z,21.80
2023-02-04T01:41:41.595Z,21.81
2023-02-04T01:44:09.267Z,21.79
2023-02-04T01:46:37.582Z,21.79
2023-02-04T01:49:05.289Z,21.78
2023-02-04T01:51:33.025Z,21.78
2023-02-04T01:54:00.886Z,21.78
2023-02-04T01:56:31.049Z,21.78
2023-02-04T01:58:58.894Z,21.78
2023-02-04T02:01:36.416Z,21.78
2023-02-04T02:04:04.302Z,21.77
2023-02-04T02:06:31.965Z,21.77
2023-02-04T02:08:59.723Z,21.77
2023-02-04T02:11:27.424Z,21.77
2023-02-04T02:13:56.506Z,21.77
2023-02-04T02:16:24.192Z,21.77
2023-02-04T02:18:53.488Z,21.76
2023-02-04T02:21:22.521Z,21.77
2023-02-04T02:23:52.023Z,21.76
2023-02-04T02:26:19.772Z,21.76
2023-02-04T02:28:48.181Z,21.74
2023-02-04T02:31:15.922Z,21.75
2023-02-04T02:33:43.550Z,21.73
2023-02-04T02:36:11.224Z,21.73
2023-02-04T02:38:38.947Z,21.72
2023-02-04T02:41:09.001Z,21.72
2023-02-04T02:43:36.650Z,21.71
2023-02-04T02:46:04.407Z,21.72
2023-02-04T02:48:32.226Z,21.71
2023-02-04T02:51:00.240Z,21.71
2023-02-04T02:53:27.893Z,21.71
2023-02-04T02:55:55.539Z,21.69
2023-02-04T02:58:25.755Z,21.69
2023-02-04T03:00:53.553Z,21.69
2023-02-04T03:03:22.805Z,21.69
2023-02-04T03:05:51.191Z,21.70
2023-02-04T03:08:18.866Z,21.69
2023-02-04T03:10:46.573Z,21.68
2023-02-04T03:13:14.811Z,21.70
2023-02-04T03:15:44.074Z,21.69
2023-02-04T03:18:11.862Z,21.69
2023-02-04T03:20:39.501Z,21.69
2023-02-04T03:23:07.181Z,21.69
2023-02-04T03:25:34.811Z,21.68
2023-02-04T03:28:02.616Z,21.69
2023-02-04T03:30:30.756Z,21.68
2023-02-04T03:33:00.000Z,21.68
2023-02-04T03:35:27.742Z,21.68
2023-02-04T03:37:55.444Z,21.68
2023-02-04T03:40:23.185Z,21.67
2023-02-04T03:42:50.793Z,21.67
2023-02-04T03:45:18.458Z,21.67
2023-02-04T03:47:46.143Z,21.66
2023-02-04T03:50:15.760Z,21.66
2023-02-04T03:52:45.307Z,21.66
2023-02-04T03:55:12.976Z,21.65
2023-02-04T03:57:40.597Z,21.65
2023-02-04T04:00:09.051Z,21.65
2023-02-04T04:02:36.780Z,21.64
2023-02-04T04:05:04.543Z,21.63
2023-02-04T04:07:33.686Z,21.64
2023-02-04T04:10:01.338Z,21.63
2023-02-04T04:12:28.948Z,21.64
2023-02-04T04:14:56.744Z,21.64
2023-02-04T04:17:24.493Z,21.64
2023-02-04T04:19:52.204Z,21.65
2023-02-04T04:22:19.837Z,21.64
2023-02-04T04:24:48.878Z,21.65
2023-02-04T04:27:16.509Z,21.64
2023-02-04T04:29:44.225Z,21.65
2023-02-04T04:32:12.243Z,21.64
2023-02-04T04:34:39.883Z,21.64
2023-02-04T04:37:07.572Z,21.64
2023-02-04T04:39:35.312Z,21.64
2023-02-04T04:42:04.386Z,21.64
2023-02-04T04:44:32.036Z,21.65
2023-02-04T04:46:59.782Z,21.64
2023-02-04T04:49:27.516Z,21.63
2023-02-04T04:51:55.237Z,21.64
2023-02-04T04:54:22.907Z,21.62
2023-02-04T04:56:50.569Z,21.63
2023-02-04T04:59:19.645Z,21.63
2023-02-04T05:01:47.360Z,21.62
2023-02-04T05:04:15.280Z,21.61
2023-02-04T05:06:42.942Z,21.62
2023-02-04T05:09:10.726Z,21.60
2023-02-04T05:11:38.437Z,21.59
2023-02-04T05:14:06.087Z,21.60
2023-02-04T05:16:35.197Z,21.60
2023-02-04T05:19:02.912Z,21.59
2023-02-04T05:21:30.603Z,21.59
2023-02-04T05:23:58.273Z,21.58
2023-02-04T05:26:30.632Z,21.57
2023-02-04T05:29:00.370Z,21.57
2023-02-04T05:31:28.230Z,21.58
2023-02-04T05:33:57.358Z,21.57
2023-02-04T05:36:25.000Z,21.58
2023-02-04T05:38:52.656Z,21.55
2023-02-04T05:41:20.320Z,21.56
2023-02-04T05:43:47.955Z,21.56
2023-02-04T05:46:15.690Z,21.56
2023-02-04T05:48:43.337Z,21.56
2023-02-04T05:51:12.351Z,21.56
2023-02-04T05:53:39.996Z,21.54
2023-02-04T05:56:07.833Z,21.54
2023-02-04T05:58:35.557Z,21.54
2023-02-04T06:01:03.226Z,21.55
2023-02-04T06:03:30.990Z,21.55
2023-02-04T06:05:58.857Z,21.55
2023-02-04T06:08:28.055Z,21.57
2023-02-04T06:10:55.765Z,21.57
2023-02-04T06:13:23.472Z,21.59
2023-02-04T06:15:51.203Z,21.59
2023-02-04T06:18:18.857Z,21.60
2023-02-04T06:20:46.709Z,21.60
2023-02-04T06:23:14.316Z,21.62
2023-02-04T06:25:43.476Z,21.61
2023-02-04T06:28:11.242Z,21.62
2023-02-04T06:30:39.094Z,21.63
2023-02-04T06:33:06.816Z,21.63
2023-02-04T06:35:34.618Z,21.63
2023-02-04T06:38:02.247Z,21.63
2023-02-04T06:40:30.192Z,21.64
2023-02-04T06:42:59.350Z,21.63
2023-02-04T06:45:27.073Z,21.64
2023-02-04T06:47:54.801Z,21.65
2023-02-04T06:50:22.459Z,21.65
2023-02-04T06:52:50.179Z,21.65
2023-02-04T06:55:18.077Z,21.65
2023-02-04T06:57:45.744Z,21.65
2023-02-04T07:00:15.565Z,21.64
2023-02-04T07:02:44.074Z,21.64
2023-02-04T07:05:11.887Z,21.64
2023-02-04T07:07:39.529Z,21.64
2023-02-04T07:10:07.490Z,21.65
2023-02-04T07:12:35.195Z,21.65
2023-02-04T07:15:02.927Z,21.65
2023-02-04T07:17:32.047Z,21.65
2023-02-04T07:19:59.747Z,21.65
2023-02-04T07:22:27.387Z,21.65
2023-02-04T07:24:55.059Z,21.65
2023-02-04T07:27:22.803Z,21.65
2023-02-04T07:29:50.530Z,21.66
2023-02-04T07:32:18.179Z,21.67
2023-02-04T07:34:48.136Z,21.66
2023-02-04T07:37:16.511Z,21.66
2023-02-04T07:39:44.163Z,21.67
2023-02-04T07:42:11.889Z,21.67
2023-02-04T07:44:39.654Z,21.67
2023-02-04T07:47:07.708Z,21.67
2023-02-04T07:49:35.711Z,21.69
2023-02-04T07:52:04.963Z,21.68
2023-02-04T07:54:32.747Z,21.68
2023-02-04T07:57:01.110Z,21.69
2023-02-04T07:59:28.818Z,21.67
2023-02-04T08:01:57.160Z,21.67
2023-02-04T08:04:25.537Z,21.67
2023-02-04T08:06:53.964Z,21.68
2023-02-04T08:09:24.040Z,21.67
2023-02-04T08:11:52.422Z,21.68
2023-02-04T08:14:20.060Z,21.67
2023-02-04T08:16:48.385Z,21.67
2023-02-04T08:19:19.137Z,21.68
2023-02-04T08:21:47.582Z,21.69
2023-02-04T08:24:15.349Z,21.69
2023-02-04T08:26:45.495Z,21.70
2023-02-04T08:29:13.193Z,21.71
2023-02-04T08:31:42.417Z,21.71
2023-02-04T08:34:10.188Z,21.72
2023-02-04T08:36:38.441Z,21.72
2023-02-04T08:39:06.142Z,21.73
2023-02-04T08:41:35.301Z,21.76
2023-02-04T08:44:04.422Z,21.77
2023-02-04T08:46:33.161Z,21.77
2023-02-04T08:49:00.821Z,21.78
2023-02-04T08:51:29.218Z,21.78
2023-02-04T08:53:56.960Z,21.78
2023-02-04T08:56:25.274Z,21.79
2023-02-04T08:58:53.219Z,21.80
2023-02-04T09:01:22.354Z,21.79
2023-02-04T09:03:52.396Z,21.80
2023-02-04T09:06:20.173Z,21.82
2023-02-04T09:08:48.528Z,21.81
2023-02-04T09:11:16.203Z,21.81
2023-02-04T09:13:44.569Z,21.80
2023-02-04T09:16:12.553Z,21.79
2023-02-04T09:18:41.582Z,21.80
2023-02-04T09:21:10.059Z,21.80
2023-02-04T09:23:37.760Z,21.81
2023-02-04T09:26:07.089Z,21.81
2023-02-04T09:28:34.749Z,21.80
2023-02-04T09:31:04.598Z,21.81
2023-02-04T09:33:32.395Z,21.80
2023-02-04T09:36:01.568Z,21.79
2023-02-04T09:38:30.415Z,21.79
2023-02-04T09:40:58.857Z,21.81
2023-02-04T09:43:27.827Z,21.81
2023-02-04T09:45:56.422Z,21.81
2023-02-04T09:48:24.155Z,21.83
2023-02-04T09:50:51.762Z,21.84
2023-02-04T09:53:22.456Z,21.84
2023-02-04T09:55:50.343Z,21.86
2023-02-04T09:58:19.077Z,21.92
2023-02-04T10:00:46.905Z,21.99
2023-02-04T10:03:17.720Z,21.99
2023-02-04T10:05:46.814Z,21.99
2023-02-04T10:08:19.445Z,21.98
2023-02-04T10:10:49.136Z,21.98
2023-02-04T10:13:19.538Z,21.97
2023-02-04T10:15:47.444Z,21.96
2023-02-04T10:18:18.140Z,21.94
2023-02-04T10:20:45.792Z,21.93
2023-02-04T10:23:14.142Z,21.94
2023-02-04T10:25:41.826Z,21.93
2023-02-04T10:28:11.625Z,21.94
2023-02-04T10:30:40.156Z,21.94
2023-02-04T10:33:15.335Z,21.93
2023-02-04T10:35:46.418Z,21.93
2023-02-04T10:38:14.756Z,21.92
2023-02-04T10:40:42.894Z,21.91
2023-02-04T10:43:12.444Z,21.90
2023-02-04T10:45:43.451Z,21.89
2023-02-04T10:48:15.385Z,21.87
2023-02-04T10:50:43.800Z,21.83
2023-02-04T10:53:29.754Z,21.75
2023-02-04T10:55:58.586Z,21.69
2023-02-04T10:58:28.043Z,21.65
2023-02-04T11:00:55.883Z,21.61
2023-02-04T11:03:26.554Z,21.59
2023-02-04T11:05:59.276Z,21.60
2023-02-04T11:08:28.050Z,21.57
2023-02-04T11:10:56.636Z,21.56
2023-02-04T11:13:24.876Z,21.53
2023-02-04T11:16:09.049Z,21.51
2023-02-04T11:18:44.816Z,21.49
2023-02-04T11:21:19.369Z,21.50
2023-02-04T11:23:47.361Z,21.49
2023-02-04T11:26:17.986Z,21.50
2023-02-04T11:28:46.828Z,21.51
2023-02-04T11:31:17.573Z,21.50
2023-02-04T11:33:45.241Z,21.49
2023-02-04T11:36:14.590Z,21.48
2023-02-04T11:38:46.438Z,21.49
2023-02-04T11:41:16.408Z,21.47
2023-02-04T11:43:45.347Z,21.47
2023-02-04T11:46:14.267Z,21.47
2023-02-04T11:48:44.095Z,21.44
2023-02-04T11:51:12.714Z,21.43
2023-02-04T11:53:41.076Z,21.42
2023-02-04T11:56:08.828Z,21.40
2023-02-04T11:58:37.249Z,21.40
2023-02-04T12:01:04.962Z,21.38
2023-02-04T12:03:35.091Z,21.37
2023-02-04T12:06:04.187Z,21.38
2023-02-04T12:08:33.900Z,21.35
2023-02-04T12:11:02.831Z,21.34
2023-02-04T12:13:31.270Z,21.34
2023-02-04T12:16:02.276Z,21.35
2023-02-04T12:18:32.516Z,21.34
2023-02-04T12:21:00.235Z,21.36
2023-02-04T12:23:31.554Z,21.36
2023-02-04T12:25:59.326Z,21.37
2023-02-04T12:28:29.496Z,21.41
2023-02-04T12:30:57.387Z,21.41
2023-02-04T12:33:25.870Z,21.41
2023-02-04T12:35:53.591Z,21.42
2023-02-04T12:38:21.314Z,21.44
2023-02-04T12:40:51.107Z,21.44
2023-02-04T12:43:18.811Z,21.45
2023-02-04T12:45:50.422Z,21.46
2023-02-04T12:48:18.184Z,21.45
2023-02-04T12:50:46.646Z,21.46
2023-02-04T12:53:14.308Z,21.47
2023-02-04T12:55:42.896Z,21.47
2023-02-04T12:58:11.954Z,21.48
2023-02-04T13:00:39.605Z,21.48
2023-02-04T13:03:08.014Z,21.49
2023-02-04T13:05:36.893Z,21.48
2023-02-04T13:08:05.299Z,21.47
2023-02-04T13:10:32.945Z,21.46
2023-02-04T13:13:04.064Z,21.46
2023-02-04T13:15:34.457Z,21.47
2023-02-04T13:18:02.426Z,21.47
2023-02-04T13:20:30.336Z,21.47
2023-02-04T13:22:58.830Z,21.46
2023-02-04T13:25:26.533Z,21.47
2023-02-04T13:27:54.900Z,21.47
2023-02-04T13:30:22.688Z,21.46
2023-02-04T13:32:52.562Z,21.46
2023-02-04T13:35:20.502Z,21.46
2023-02-04T13:37:48.967Z,21.46
2023-02-04T13:40:16.660Z,21.46
2023-02-04T13:42:44.342Z,21.45
2023-02-04T13:45:13.965Z,21.44
2023-02-04T13:47:41.620Z,21.44
2023-02-04T13:50:11.776Z,21.44
2023-02-04T13:52:39.448Z,21.44
2023-02-04T13:55:09.690Z,21.43
2023-02-04T13:57:38.311Z,21.44
2023-02-04T14:00:07.781Z,21.43
2023-02-04T14:02:36.395Z,21.43
2023-02-04T14:05:05.816Z,21.42
2023-02-04T14:07:35.299Z,21.41
2023-02-04T14:10:03.918Z,21.41
2023-02-04T14:12:31.595Z,21.40
2023-02-04T14:15:01.770Z,21.37
2023-02-04T14:17:29.469Z,21.40
2023-02-04T14:19:57.139Z,21.40
2023-02-04T14:22:25.554Z,21.40
2023-02-04T14:24:54.660Z,21.40
2023-02-04T14:27:23.114Z,21.40
2023-02-04T14:29:50.733Z,21.40
2023-02-04T14:32:19.675Z,21.41
2023-02-04T14:34:47.419Z,21.40
2023-02-04T14:37:17.637Z,21.42
2023-02-04T14:39:45.291Z,21.41
2023-02-04T14:42:16.626Z,21.41
2023-02-04T14:44:44.374Z,21.42
2023-02-04T14:47:14.646Z,21.41
2023-02-04T14:49:42.308Z,21.41
2023-02-04T14:52:12.163Z,21.43
2023-02-04T14:54:39.856Z,21.43
2023-02-04T14:57:12.067Z,21.43
2023-02-04T14:59:41.267Z,21.41
2023-02-04T15:02:09.767Z,21.41
2023-02-04T15:04:38.219Z,21.40
2023-02-04T15:07:07.651Z,21.39
2023-02-04T15:09:35.374Z,21.39
2023-02-04T15:12:03.902Z,21.39
2023-02-04T15:14:31.611Z,21.37
2023-02-04T15:17:01.509Z,21.38
2023-02-04T15:19:29.229Z,21.37
2023-02-04T15:21:56.975Z,21.37
2023-02-04T15:24:27.566Z,21.36
2023-02-04T15:26:55.330Z,21.37
2023-02-04T15:29:24.753Z,21.36
2023-02-04T15:31:52.563Z,21.35
2023-02-04T15:34:22.495Z,21.35
2023-02-04T15:36:50.213Z,21.35
2023-02-04T15:39:18.651Z,21.34
2023-02-04T15:41:46.374Z,21.35
2023-02-04T15:44:18.702Z,21.34
2023-02-04T15:46:46.309Z,21.34
2023-02-04T15:49:13.980Z,21.34
2023-02-04T15:51:44.722Z,21.34
2023-02-04T15:54:12.470Z,21.35
2023-02-04T15:56:41.606Z,21.36
2023-02-04T15:59:10.092Z,21.34
2023-02-04T16:01:38.726Z,21.33
2023-02-04T16:04:08.811Z,21.33
2023-02-04T16:06:37.368Z,21.34
2023-02-04T16:09:06.641Z,21.34
2023-02-04T16:11:35.951Z,21.33
2023-02-04T16:14:05.892Z,21.33
2023-02-04T16:16:33.545Z,21.32
2023-02-04T16:19:02.001Z,21.32
2023-02-04T16:21:29.746Z,21.26
2023-02-04T16:23:58.229Z,21.30
2023-02-04T16:26:27.330Z,21.30
2023-02-04T16:28:56.803Z,21.29
2023-02-04T16:31:24.581Z,21.29
2023-02-04T16:33:52.261Z,21.29
2023-02-04T16:36:20.893Z,21.28
2023-02-04T16:38:48.579Z,21.27
2023-02-04T16:41:17.898Z,21.28
2023-02-04T16:43:47.061Z,21.27
2023-02-04T16:46:16.212Z,21.28
2023-02-04T16:48:44.667Z,21.28
2023-02-04T16:51:12.381Z,21.26
2023-02-04T16:53:40.046Z,21.27
2023-02-04T16:56:10.806Z,21.27
2023-02-04T16:58:39.998Z,21.27
2023-02-04T17:01:10.086Z,21.28
2023-02-04T17:03:40.333Z,21.26
2023-02-04T17:06:09.304Z,21.28
2023-02-04T17:08:36.987Z,21.28
2023-02-04T17:11:22.894Z,21.26
2023-02-04T17:13:50.644Z,21.26
2023-02-04T17:16:19.732Z,21.26
2023-02-04T17:18:48.427Z,21.26
2023-02-04T17:21:16.103Z,21.26
2023-02-04T17:23:44.289Z,21.26
2023-02-04T17:26:12.807Z,21.24
2023-02-04T17:28:40.588Z,21.24
2023-02-04T17:31:09.210Z,21.24
2023-02-04T17:33:38.561Z,21.22
2023-02-04T17:36:07.123Z,21.23
2023-02-04T17:38:35.853Z,21.22
2023-02-04T17:41:03.661Z,21.21
2023-02-04T17:43:32.852Z,21.23
2023-02-04T17:46:00.653Z,21.21
2023-02-04T17:48:29.152Z,21.22
2023-02-04T17:50:58.208Z,21.22
2023-02-04T17:53:26.647Z,21.21
2023-02-04T17:55:54.336Z,21.21
2023-02-04T17:58:23.273Z,21.21
2023-02-04T18:00:51.092Z,21.22
2023-02-04T18:03:21.872Z,21.20
2023-02-04T18:05:50.742Z,21.20
2023-02-04T18:08:20.892Z,21.19
2023-02-04T18:10:48.883Z,21.20
2023-02-04T18:13:17.329Z,21.20
2023-02-04T18:15:46.548Z,21.22
2023-02-04T18:18:21.053Z,21.20
2023-02-04T18:20:49.557Z,21.20
2023-02-04T18:23:18.054Z,21.20
2023-02-04T18:25:50.913Z,21.20
2023-02-04T18:28:19.336Z,21.21
2023-02-04T18:30:48.154Z,21.19
2023-02-04T18:33:16.580Z,21.19
2023-02-04T18:35:47.035Z,21.18
2023-02-04T18:38:24.868Z,21.18
2023-02-04T18:40:55.910Z,21.18
2023-02-04T18:43:24.722Z,21.17
2023-02-04T18:45:53.282Z,21.15
2023-02-04T18:48:39.817Z,21.17
2023-02-04T18:51:08.893Z,21.16
2023-02-04T18:53:36.562Z,21.16
2023-02-04T18:56:06.478Z,21.15
2023-02-04T18:58:34.676Z,21.14
2023-02-04T19:01:02.835Z,21.15
2023-02-04T19:03:31.652Z,21.16
2023-02-04T19:06:00.769Z,21.16
2023-02-04T19:08:30.352Z,21.17
2023-02-04T19:10:58.493Z,21.18
2023-02-04T19:13:28.927Z,21.21
2023-02-04T19:16:00.698Z,21.20
2023-02-04T19:18:30.413Z,21.21
2023-02-04T19:21:02.363Z,21.22
2023-02-04T19:23:35.295Z,21.22
2023-02-04T19:26:03.059Z,21.22
2023-02-04T19:28:34.863Z,21.23
2023-02-04T19:31:03.285Z,21.23
2023-02-04T19:33:35.949Z,21.24
2023-02-04T19:36:13.859Z,21.24
2023-02-04T19:38:42.753Z,21.24
2023-02-04T19:41:25.649Z,21.24
2023-02-04T19:43:55.510Z,21.25
2023-02-04T19:46:24.749Z,21.25
2023-02-04T19:48:52.563Z,21.24
2023-02-04T19:51:24.578Z,21.24
2023-02-04T19:53:52.869Z,21.24
2023-02-04T19:56:39.963Z,21.24
2023-02-04T19:59:17.741Z,21.23
2023-02-04T20:01:46.325Z,21.24
2023-02-04T20:04:15.511Z,21.24
2023-02-04T20:06:43.732Z,21.24
2023-02-04T20:09:13.790Z,21.25
2023-02-04T20:11:50.688Z,21.25
2023-02-04T20:14:25.010Z,21.24
2023-02-04T20:16:53.442Z,21.25
2023-02-04T20:19:28.005Z,21.24
2023-02-04T20:22:25.982Z,21.25
2023-02-04T20:24:55.971Z,21.26
2023-02-04T20:27:26.064Z,21.25
2023-02-04T20:29:54.589Z,21.26
2023-02-04T20:32:28.098Z,21.27
2023-02-04T20:34:55.824Z,21.27
2023-02-04T20:37:23.959Z,21.27
2023-02-04T20:39:52.955Z,21.27
2023-02-04T20:42:33.602Z,21.27
2023-02-04T20:45:16.055Z,21.26
2023-02-04T20:47:43.816Z,21.26
2023-02-04T20:50:32.035Z,21.26
2023-02-04T20:53:16.763Z,21.25
2023-02-04T20:55:47.500Z,21.24
2023-02-04T20:58:17.728Z,21.24
2023-02-04T21:00:47.064Z,21.25
2023-02-04T21:03:19.470Z,21.23
2023-02-04T21:05:50.143Z,21.24
2023-02-04T21:08:22.634Z,21.24
2023-02-04T21:10:51.186Z,21.24
2023-02-04T21:13:20.350Z,21.23
2023-02-04T21:15:48.864Z,21.24
2023-02-04T21:18:16.553Z,21.23
2023-02-04T21:20:44.211Z,21.23
2023-02-04T21:23:13.048Z,21.22
2023-02-04T21:25:41.592Z,21.22
2023-02-04T21:28:10.228Z,21.22
2023-02-04T21:30:39.414Z,21.23
2023-02-04T21:33:11.101Z,21.24
2023-02-04T21:35:38.877Z,21.24
2023-02-04T21:38:06.590Z,21.24
2023-02-04T21:40:36.025Z,21.24
2023-02-04T21:43:05.820Z,21.25
2023-02-04T21:45:34.804Z,21.24
2023-02-04T21:48:04.155Z,21.24
2023-02-04T21:50:34.082Z,21.24
2023-02-04T21:53:01.863Z,21.24
2023-02-04T21:55:30.046Z,21.23
2023-02-04T21:57:58.433Z,21.21
2023-02-04T22:00:26.125Z,21.21
2023-02-04T22:02:54.679Z,21.21
2023-02-04T22:05:24.867Z,21.19
2023-02-04T22:07:52.474Z,21.17
2023-02-04T22:10:24.933Z,21.17
2023-02-04T22:12:53.377Z,21.15
2023-02-04T22:15:26.132Z,21.12
2023-02-04T22:17:54.002Z,21.13
2023-02-04T22:20:21.774Z,21.13
2023-02-04T22:22:52.008Z,21.14
2023-02-04T22:25:20.050Z,21.12
2023-02-04T22:27:47.716Z,21.10
2023-02-04T22:30:16.362Z,21.11
2023-02-04T22:32:44.139Z,21.11
2023-02-04T22:35:13.019Z,21.10
2023-02-04T22:37:40.987Z,21.10
2023-02-04T22:40:11.529Z,21.10
2023-02-04T22:42:39.310Z,21.11
2023-02-04T22:45:08.034Z,21.10
2023-02-04T22:47:36.440Z,21.09
2023-02-04T22:50:04.149Z,21.09
2023-02-04T22:52:32.537Z,21.10
2023-02-04T22:55:00.230Z,21.09
2023-02-04T22:57:29.284Z,21.07
2023-02-04T22:59:57.726Z,21.07
2023-02-04T23:02:26.132Z,21.06
2023-02-04T23:04:55.226Z,21.05
2023-02-04T23:07:22.904Z,21.05
2023-02-04T23:09:51.046Z,21.05
2023-02-04T23:12:19.465Z,21.04
2023-02-04T23:14:48.772Z,21.02
2023-02-04T23:17:16.793Z,21.03
2023-02-04T23:19:45.615Z,21.02
2023-02-04T23:22:13.370Z,21.01
2023-02-04T23:24:41.247Z,21.01
2023-02-04T23:27:11.644Z,21.01
2023-02-04T23:29:39.601Z,21.00
2023-02-04T23:32:08.752Z,21.00
2023-02-04T23:34:36.702Z,20.99
2023-02-04T23:37:04.450Z,20.98
2023-02-04T23:39:32.385Z,20.98
2023-02-04T23:42:00.187Z,20.98
2023-02-04T23:44:27.937Z,20.98
2023-02-04T23:46:55.642Z,20.98
2023-02-04T23:49:24.835Z,20.98
2023-02-04T23:51:52.541Z,20.98
2023-02-04T23:54:20.166Z,20.98
2023-02-04T23:56:47.856Z,20.99
2023-02-04T23:59:15.758Z,20.98
